• Join FlightAware (Why Join?)
  • Login
  • US Flag GB Flag 
01:35 EST


 

Airport Tracker/Info


-or-


 

Live Flight TrackerFlight Track Log ✈ EJM826 ✈ 05-Oct-2013 ✈ KPHL - KLBB

Flight Track Log - Related Links

Times and Time Zones

All times are in EDT time to prevent confusion due to time zone crossing. See the EJM826 flight status page for this flight to view local times or setup timezone preferences in your user account.

Time Position Orientation Groundspeed Altitude Reporting Facility
EDT Latitude Longitude Course Direction KTS MPH feet Rate Location/Type
16:12 39.8667 -75.2667 256° West 166 191 700  Level Philadelphia TRACON
16:14 39.8336 -75.4369 256° West 248 285 4,800 2,280 Climbing New York Center
16:15 39.8172 -75.5331 258° West 275 316 7,800 2,340 Climbing New York Center
16:17 39.8004 -75.6981 255° West  Level FlightAware Approximate
16:17 39.8292 -75.7475 255° West 303 349 11,900  Level New York Center
16:18 39.8181 -75.8656 263° West 337 388 13,800 1,800 Climbing New York Center
16:19 39.8064 -75.9889 263° West 343 395 15,500 1,560 Climbing New York Center
16:20 39.7917 -76.1283 262° West 353 406 17,000 1,500 Climbing New York Center
16:21 39.7814 -76.2600 264° West 365 420 18,500 1,260 Climbing New York Center
16:22 39.7717 -76.3783 264° West 370 426 19,600 900 Climbing New York Center
16:23 39.7581 -76.5092 262° West 372 428 20,400 1,020 Climbing Washington Center
16:24 39.7425 -76.6439 262° West 390 449 21,700 1,200 Climbing Washington Center
16:25 39.7267 -76.7814 262° West 390 449 22,900 1,080 Climbing Washington Center
16:26 39.7147 -76.9158 263° West 385 443 23,900 900 Climbing Washington Center
16:27 39.7006 -77.0558 263° West 390 449 24,800 900 Climbing Washington Center
16:28 39.6864 -77.1933 262° West 390 449 25,700 900 Climbing Washington Center
16:29 39.6367 -77.3242 244° Southwest 390 449 26,600 780 Climbing Washington Center
16:30 39.5786 -77.4492 239° Southwest 395 455 27,300 600 Climbing Washington Center
16:31 39.5161 -77.5767 238° Southwest 412 474 27,900 540 Climbing Washington Center
16:32 39.4533 -77.7067 238° Southwest 424 488 28,400 780 Climbing Washington Center
16:33 39.3906 -77.8392 239° Southwest 429 494 29,500 1,080 Climbing Washington Center
16:34 39.3381 -77.9717 243° Southwest 424 488 30,600 1,080 Climbing Washington Center
16:35 39.2853 -78.1014 242° Southwest 418 481 31,700 1,260 Climbing Washington Center
16:36 39.2325 -78.2336 243° Southwest 418 481 33,100 1,500 Climbing Washington Center
16:37 39.1817 -78.3631 243° Southwest 413 475 34,700 1,380 Climbing Washington Center
16:38 39.1308 -78.4869 242° Southwest 401 461 36,000 1,140 Climbing Washington Center
16:39 39.0819 -78.6133 244° Southwest 401 461 37,100 1,080 Climbing Washington Center
16:40 39.0308 -78.7367 242° Southwest 401 461 38,200 960 Climbing Washington Center
16:41 38.9794 -78.8628 242° Southwest 401 461 39,100 840 Climbing Washington Center
16:42 38.9278 -78.9911 243° Southwest 401 461 40,000 420 Climbing Washington Center
16:43 38.8719 -79.1219 241° Southwest 406 467 40,000  Level Washington Center
16:44 38.8281 -79.2664 249° West 421 484 40,000  Level Washington Center
16:45 38.8006 -79.4169 257° West 431 496 40,000  Level Washington Center
16:46 38.7786 -79.5728 260° West 436 502 40,000  Level Washington Center
16:47 38.7506 -79.7231 257° West 441 507 40,000  Level Washington Center
16:49 38.7100 -79.9233 256° West 423 487 40,000  Level Indianapolis Center
16:50 38.6822 -80.0694 256° West 423 487 40,000  Level Indianapolis Center
16:51 38.6542 -80.2144 256° West 421 484 40,000  Level Indianapolis Center
16:52 38.6275 -80.3589 257° West 418 481 40,000  Level Indianapolis Center
16:53 38.6000 -80.5033 256° West 417 480 40,000  Level Indianapolis Center
16:54 38.5719 -80.6478 256° West 419 482 40,000  Level Indianapolis Center
16:55 38.5447 -80.7911 256° West 415 478 40,000  Level Indianapolis Center
16:56 38.5161 -80.9344 256° West 415 478 40,000  Level Indianapolis Center
16:57 38.4886 -81.0783 256° West 416 479 40,000  Level Indianapolis Center
16:58 38.4594 -81.2206 255° West 411 473 40,000  Level Indianapolis Center
16:59 38.4306 -81.3636 256° West 412 474 40,000  Level Indianapolis Center
17:00 38.4022 -81.5053 256° West 409 471 40,000  Level Indianapolis Center
17:01 38.3750 -81.6467 256° West 406 467 40,000  Level Indianapolis Center
17:02 38.3489 -81.7869 257° West 405 466 40,000  Level Indianapolis Center
17:03 38.3422 -81.9303 267° West 400 460 40,000  Level Indianapolis Center
17:04 38.3328 -82.1019 266° West 405 466 40,000  Level Indianapolis Center
17:05 38.3264 -82.2469 267° West 408 470 40,000  Level Indianapolis Center
17:06 38.3183 -82.3894 266° West 405 466 40,000  Level Indianapolis Center
17:07 38.3103 -82.5311 266° West 405 466 40,000  Level Indianapolis Center
17:08 38.3033 -82.6750 267° West 407 468 40,000  Level Indianapolis Center
17:09 38.2942 -82.8167 265° West 405 466 40,000  Level Indianapolis Center
17:10 38.2858 -82.9589 266° West 405 466 40,000  Level Indianapolis Center
17:11 38.2772 -83.1011 266° West 404 465 40,000  Level Indianapolis Center
17:12 38.2686 -83.2442 266° West 406 467 40,000  Level Indianapolis Center
17:13 38.2583 -83.4106 266° West 404 465 40,000  Level Indianapolis Center
17:14 38.2492 -83.5531 265° West 405 466 40,100 420 Climbing Indianapolis Center
17:15 38.2400 -83.6978 265° West 409 471 40,900 780 Climbing Indianapolis Center
17:16 38.2306 -83.8406 265° West 406 467 41,700 780 Climbing Indianapolis Center
17:17 38.2211 -83.9817 265° West 402 463 42,500 600 Climbing Indianapolis Center
17:18 38.2342 -84.1167 277° West 385 443 43,000 240 Climbing Indianapolis Center
17:19 38.2556 -84.2508 282° West 386 444 43,000  Level Indianapolis Center
17:20 38.2400 -84.3894 262° West 394 453 43,000  Level Indianapolis Center
17:21 38.2183 -84.5283 259° West 399 459 43,000  Level Indianapolis Center
17:22 38.1994 -84.6672 260° West 399 459 43,000  Level Indianapolis Center
17:23 38.1761 -84.8294 260° West 400 460 43,000  Level Indianapolis Center
17:24 38.1586 -84.9658 261° West 393 452 43,000  Level Indianapolis Center
17:25 38.1450 -85.1031 263° West 393 452 43,000  Level Indianapolis Center
17:26 38.1319 -85.2372 263° West 396 456 43,000  Level Indianapolis Center
17:27 38.1203 -85.3756 264° West 395 455 43,000  Level Indianapolis Center
17:28 38.1092 -85.5150 264° West 397 457 43,000  Level Indianapolis Center
17:29 38.0969 -85.6544 264° West 396 456 43,000  Level Indianapolis Center
17:30 38.0886 -85.7925 266° West 394 453 43,000  Level Indianapolis Center
17:31 38.0781 -85.9300 264° West 391 450 43,000  Level Indianapolis Center
17:32 38.0686 -86.0664 265° West 388 447 43,000  Level Indianapolis Center
17:33 38.0567 -86.2025 264° West 388 447 43,000  Level Indianapolis Center
17:34 38.0469 -86.3406 265° West 390 449 43,000  Level Indianapolis Center
17:36 38.0358 -86.4756 264° West 385 443 43,000  Level Indianapolis Center
17:37 38.0233 -86.6394 265° West 386 444 43,000  Level Indianapolis Center
17:38 38.0125 -86.7744 264° West 384 442 43,000  Level Indianapolis Center
17:39 38.0006 -86.9108 264° West 384 442 43,000  Level Indianapolis Center
17:40 37.9900 -87.0481 264° West 386 444 43,000  Level Indianapolis Center
17:41 37.9783 -87.1850 264° West 385 443 43,000  Level Indianapolis Center
17:42 37.9672 -87.3203 264° West 384 442 43,000  Level Indianapolis Center
17:43 37.9550 -87.4558 264° West 384 442 43,000  Level Indianapolis Center
17:44 37.9442 -87.5892 264° West 380 437 43,000  Level Indianapolis Center
17:45 37.9317 -87.7242 263° West 381 438 43,000  Level Indianapolis Center
17:46 37.9197 -87.8578 264° West 382 440 43,000  Level Indianapolis Center
17:47 37.9075 -87.9911 263° West 382 440 43,000  Level Indianapolis Center
17:48 37.8972 -88.1239 264° West 380 437 43,000  Level Indianapolis Center
17:49 37.9158 -88.2603 280° West 392 451 43,000  Level Indianapolis Center
17:50 37.9306 -88.3964 278° West 389 448 43,000  Level Indianapolis Center
17:51 37.9114 -88.5272 260° West 377 434 43,000  Level Indianapolis Center
17:52 37.8944 -88.6589 261° West 377 434 43,000  Level Indianapolis Center
17:53 37.8772 -88.7858 260° West 369 425 43,000  Level Indianapolis Center
17:54 37.8614 -88.9144 261° West 368 423 43,000  Level Indianapolis Center
17:54 37.8556 -88.9717 263° West 368 423 43,000  Level Kansas City Center
17:55 37.8383 -89.1275 262° West 375 432 43,000  Level Kansas City Center
17:56 37.8228 -89.2467 261° West 378 435 43,000  Level Kansas City Center
17:57 37.8036 -89.3872 260° West 373 429 43,000  Level Kansas City Center
17:58 37.7867 -89.5189 261° West 377 434 43,000  Level Kansas City Center
17:59 37.7700 -89.6519 261° West 380 437 43,000  Level Kansas City Center
18:00 37.7519 -89.7853 260° West 383 441 43,000  Level Kansas City Center
18:02 37.7353 -89.9181 261° West 383 441 43,000  Level Kansas City Center
18:03 37.7183 -90.0519 261° West 385 443 43,000  Level Kansas City Center
18:04 37.7008 -90.1869 261° West 387 445 43,000  Level Kansas City Center
18:05 37.6808 -90.3489 261° West 388 447 43,000  Level Kansas City Center
18:06 37.6619 -90.4814 260° West 386 444 43,000  Level Kansas City Center
18:07 37.6442 -90.6153 261° West 387 445 43,000  Level Kansas City Center
18:08 37.6289 -90.7506 262° West 389 448 43,000  Level Kansas City Center
18:09 37.6142 -90.8936 263° West 390 449 43,000  Level Kansas City Center
18:10 37.5992 -91.0286 262° West 389 448 43,000  Level Kansas City Center
18:11 37.5864 -91.1642 263° West 389 448 43,000  Level Kansas City Center
18:12 37.5725 -91.3008 263° West 390 449 43,000  Level Kansas City Center
18:13 37.5586 -91.4378 263° West 392 451 43,000  Level Kansas City Center
18:14 37.5450 -91.5733 263° West 390 449 43,000  Level Kansas City Center
18:15 37.5319 -91.7097 263° West 390 449 43,000  Level Kansas City Center
18:16 37.5144 -91.8736 262° West 390 449 43,000  Level Kansas City Center
18:17 37.5006 -92.0097 263° West 390 449 43,000  Level Kansas City Center
18:18 37.4867 -92.1475 263° West 392 451 43,000  Level Kansas City Center
18:19 37.4714 -92.2822 262° West 388 447 43,000  Level Kansas City Center
18:20 37.4569 -92.4178 262° West 386 444 43,000  Level Kansas City Center
18:21 37.4436 -92.5522 263° West 385 443 43,000  Level Kansas City Center
18:22 37.4289 -92.6856 262° West 383 441 43,000  Level Kansas City Center
18:23 37.4142 -92.8172 262° West 380 437 43,000  Level Kansas City Center
18:24 37.3983 -92.9481 261° West 377 434 43,000  Level Kansas City Center
18:25 37.3836 -93.0819 262° West 381 438 43,000  Level Kansas City Center
18:26 37.3686 -93.2142 262° West 381 438 43,000  Level Kansas City Center
18:27 37.3522 -93.3458 261° West 380 437 43,000  Level Kansas City Center
18:28 37.3125 -93.4631 247° West 366 421 43,000  Level Kansas City Center
18:29 37.2761 -93.5842 249° West 369 425 43,000  Level Kansas City Center
18:30 37.2317 -93.7272 249° West 366 421 43,000  Level Kansas City Center
18:31 37.1944 -93.8469 249° West 367 422 43,000  Level Kansas City Center
18:32 37.1558 -93.9672 248° West 369 425 43,000  Level Kansas City Center
18:33 37.1225 -94.0767 249° West 370 426 43,000  Level Kansas City Center
18:34 37.0844 -94.1958 248° West 369 425 43,000  Level Kansas City Center
18:35 37.0394 -94.3406 249° West 372 428 43,000  Level Kansas City Center
18:36 37.0006 -94.4617 248° West 375 432 43,000  Level Kansas City Center
18:37 36.9622 -94.5819 248° West 373 429 43,000  Level Kansas City Center
18:38 36.9239 -94.7033 248° West 375 432 43,000  Level Kansas City Center
18:39 36.8869 -94.8233 249° West 372 428 43,000  Level Kansas City Center
18:40 36.8483 -94.9447 248° West 374 430 43,000  Level Kansas City Center
18:41 36.8092 -95.0642 248° West 373 429 43,000  Level Kansas City Center
18:42 36.7703 -95.1836 248° West 373 429 43,000  Level Kansas City Center
18:44 36.7308 -95.3050 248° West 376 433 43,000  Level Kansas City Center
18:45 36.6850 -95.4481 248° West 375 432 43,000  Level Kansas City Center
18:46 36.6472 -95.5661 248° West 373 429 43,000  Level Kansas City Center
18:47 36.6083 -95.6836 248° West 371 427 43,000  Level Kansas City Center
18:48 36.5683 -95.7997 247° West 370 426 43,000  Level Kansas City Center
18:49 36.5292 -95.9156 247° West 368 423 43,000  Level Kansas City Center
18:50 36.4906 -96.0328 248° West 368 423 43,000  Level Kansas City Center
18:51 36.4519 -96.1503 248° West 369 425 43,000  Level Kansas City Center
18:52 36.4036 -96.2903 247° West 369 425 43,000  Level Kansas City Center
18:53 36.3639 -96.4089 247° West 372 428 43,000  Level Kansas City Center
18:54 36.3242 -96.5275 247° West 373 429 43,000  Level Kansas City Center
18:55 36.2828 -96.6461 247° West 375 432 43,000  Level Kansas City Center
18:56 36.2419 -96.7678 247° West 373 429 43,000  Level Kansas City Center
18:57 36.2006 -96.8858 247° West 375 432 43,000  Level Kansas City Center
18:58 36.1594 -97.0036 247° West 375 432 43,000  Level Kansas City Center
18:59 36.1186 -97.1233 247° West 378 435 43,000  Level Kansas City Center
19:00 36.0692 -97.2647 247° West 377 434 43,000  Level Kansas City Center
19:01 36.0272 -97.3831 246° West 378 435 43,000  Level Kansas City Center
19:02 35.9864 -97.5003 247° West 376 433 43,000  Level Kansas City Center
19:03 35.9444 -97.6186 246° West 378 435 43,000  Level Kansas City Center
19:04 35.9025 -97.7367 246° West 378 435 43,000  Level Kansas City Center
19:05 35.8608 -97.8533 246° West 377 434 43,000  Level Kansas City Center
19:06 35.8192 -97.9706 246° West 376 433 43,000  Level Kansas City Center
19:07 35.7933 -98.0992 256° West 385 443 43,000  Level Kansas City Center
19:08 35.7775 -98.2283 261° West 382 440 43,000  Level Kansas City Center
19:09 35.7603 -98.3564 261° West 379 436 43,000  Level Kansas City Center
19:10 35.7400 -98.5114 261° West 380 437 43,000  Level Kansas City Center
19:11 35.7222 -98.6411 260° West 382 440 43,000  Level Kansas City Center
19:12 35.7053 -98.7711 261° West 382 440 43,000  Level Kansas City Center
19:13 35.6875 -98.9031 261° West 385 443 43,000  Level Kansas City Center
19:14 35.6581 -99.0306 254° West 388 447 43,000  Level Kansas City Center
19:15 35.5753 -99.1617 232° Southwest 388 447 43,000  Level Fort Worth Center
19:16 35.5053 -99.2597 229° Southwest 388 447 43,000  Level Fort Worth Center
19:17 35.4347 -99.3625 230° Southwest 394 453 43,000  Level Fort Worth Center
19:18 35.3642 -99.4653 230° Southwest 394 453 43,000  Level Fort Worth Center
19:19 35.2939 -99.5653 229° Southwest 399 459 43,000  Level Fort Worth Center
19:20 35.2211 -99.6678 229° Southwest 399 459 43,000  Level Fort Worth Center
19:21 35.1483 -99.7697 229° Southwest 399 459 43,000  Level Fort Worth Center
19:22 35.0775 -99.8719 230° Southwest 399 459 43,000  Level Fort Worth Center
19:23 35.0194 -99.9539 229° Southwest 399 459 43,000 -960 Level Fort Worth Center
19:24 34.9400 -100.0628 228° Southwest 399 459 41,100 -2,220 Descending Fort Worth Center
19:25 34.8689 -100.1694 231° Southwest 404 465 38,600 -2,520 Descending Fort Worth Center
19:26 34.7981 -100.2633 227° Southwest 399 459 36,100 -2,580 Descending Fort Worth Center
19:27 34.7292 -100.3594 229° Southwest 393 452 33,500 -2,760 Descending Fort Worth Center
19:28 34.6556 -100.4681 231° Southwest 387 445 30,600 -2,760 Descending Fort Worth Center
19:29 34.5819 -100.5714 229° Southwest 393 452 28,000 -2,580 Descending Fort Worth Center
19:30 34.5086 -100.6719 229° Southwest 405 466 25,500 -1,800 Descending Fort Worth Center
19:31 34.4369 -100.7700 228° Southwest 400 460 24,400 -1,200 Descending Fort Worth Center
19:32 34.3719 -100.8606 229° Southwest 400 460 23,100 -1,740 Descending Fort Worth Center
19:33 34.3072 -100.9433 227° Southwest 400 460 21,300 -1,980 Descending Fort Worth Center
19:33 34.2961 -100.9656 239° Southwest 400 460 21,100 -2,040 Descending Fort Worth Center
19:34 34.2767 -100.9872 223° Southwest 411 473 20,500 -2,280 Descending Fort Worth Center
19:35 34.2028 -101.0922 230° Southwest 426 490 18,600 -2,100 Descending Fort Worth Center
19:36 34.1222 -101.1967 227° Southwest 415 478 16,500 -2,160 Descending Fort Worth Center
19:37 34.0525 -101.2989 231° Southwest 399 459 14,300 -2,220 Descending Fort Worth Center
19:38 33.9767 -101.3856 223° Southwest 330 380 12,100 -1,740 Descending Fort Worth Center
19:38 33.9233 -101.4208 209° Southwest 334 384 11,100 -1,500 Descending Fort Worth Center
19:39 33.9000 -101.4347 206° Southwest 289 333 10,600 -1,740 Descending Fort Worth Center
19:39 33.8525 -101.4800 218° Southwest 295 339 9,400 -1,380 Descending Fort Worth Center
19:40 33.8378 -101.4894 208° Southwest 271 312 9,200 -1,320 Descending Fort Worth Center
19:40 33.8028 -101.5328 226° Southwest 274 315 8,100 -1,320 Descending Fort Worth Center
19:41 33.7856 -101.5519 223° Southwest 260 299 7,900 -900 Descending Fort Worth Center
19:41 33.7461 -101.6075 230° Southwest 274 315 7,200 -840 Descending Fort Worth Center
19:42 33.7375 -101.6194 229° Southwest 277 319 7,100 -1,320 Descending Fort Worth Center
19:42 33.7022 -101.6703 230° Southwest 282 325 5,900 -1,620 Descending Fort Worth Center
19:43 33.6869 -101.6919 230° Southwest 280 322 5,500 -1,620 Descending Fort Worth Center
19:43 33.6622 -101.7433 240° Southwest 258 297 4,300 -1,380 Descending Fort Worth Center
19:44 33.6597 -101.7531 253° West 197 227 4,100 -840 Descending Fort Worth Center
19:44 33.6628 -101.7881 276° West 173 199 3,500 -540 Descending Fort Worth Center
19:45 33.6544 -101.8475 260° West 164 189 3,200 5,220 Descending Fort Worth Center
19:46 33.6461 -101.9044 260° West 164 189 14,000 5,400 Climbing Fort Worth Center
19:47 33.6400 -101.9592 262° West 164 189 14,000  Level Fort Worth Center
19:49 33.6637 -101.8206 78° East  Level Estimated
19:56 33.6637 -101.8206 132° Southeast  Level Estimated
19:57 33.6637 -101.8206 132° Southeast  Level Estimated
19:58 33.6637 -101.8206 132° Southeast  Level Estimated
19:59 33.6637 -101.8206 132° Southeast  Level Estimated
20:00 33.6637 -101.8206 132° Southeast  Level Estimated
20:01 33.6637 -101.8206 132° Southeast  Level Estimated